Time;durP1;ratioP1;P1;durP2;ratioP2;P2;SDS_P1;SDS_P2;PMS_P1;PMS_P2;Temp;Humidity;BMP_temperature;BMP_pressure;BME280_temperature;BME280_humidity;BME280_pressure;Samples;Min_cycle;Max_cycle;Signal;HPM_P1;HPM_P2
2022/11/02 00:00:23;;;;;;;8.03;1.83;;;13.60;99.90;;;;;;5037015;28;20763;-85
2022/11/02 00:02:49;;;;;;;10.90;3.33;;;13.70;99.90;;;;;;5036681;28;20452;-85
2022/11/02 00:05:15;;;;;;;9.73;2.13;;;13.70;99.90;;;;;;5019544;28;20192;-85
2022/11/02 00:07:41;;;;;;;9.57;1.90;;;13.70;99.90;;;;;;5037339;28;20264;-84
2022/11/02 00:10:08;;;;;;;8.83;2.47;;;13.80;99.90;;;;;;5035543;28;20428;-85
2022/11/02 00:12:34;;;;;;;10.07;2.13;;;13.80;99.90;;;;;;5037051;28;20395;-85
2022/11/02 00:14:59;;;;;;;9.80;2.27;;;13.80;99.90;;;;;;5035389;28;20413;-84
2022/11/02 00:17:25;;;;;;;3.07;1.80;;;13.80;99.90;;;;;;5037808;28;20174;-85
2022/11/02 00:19:51;;;;;;;18.17;2.47;;;13.70;99.90;;;;;;5037120;28;20214;-85
2022/11/02 00:22:16;;;;;;;7.50;1.60;;;13.80;99.90;;;;;;5038067;28;20453;-85
2022/11/02 00:24:42;;;;;;;8.50;2.00;;;13.80;99.90;;;;;;5037221;28;20183;-85
2022/11/02 00:27:08;;;;;;;11.37;1.80;;;13.80;99.90;;;;;;5022931;28;20244;-84
2022/11/02 00:29:34;;;;;;;8.70;1.90;;;13.70;99.90;;;;;;5036321;28;20179;-85
2022/11/02 00:32:00;;;;;;;8.40;2.37;;;13.70;99.90;;;;;;5003053;28;20194;-85
2022/11/02 00:34:25;;;;;;;5.10;1.60;;;13.70;99.90;;;;;;5036041;28;20776;-85
2022/11/02 00:36:52;;;;;;;9.87;1.83;;;13.70;99.90;;;;;;5036390;28;20417;-85
2022/11/02 00:39:18;;;;;;;7.80;1.83;;;13.70;99.90;;;;;;5036632;28;20523;-85
2022/11/02 00:41:43;;;;;;;8.50;2.07;;;13.70;99.90;;;;;;5036619;28;20522;-84
2022/11/02 00:44:09;;;;;;;10.07;1.70;;;13.60;99.90;;;;;;5034765;28;20182;-85
2022/11/02 00:46:35;;;;;;;4.53;2.00;;;13.60;99.90;;;;;;5034598;28;20584;-85
2022/11/02 00:49:00;;;;;;;9.20;2.30;;;13.60;99.90;;;;;;5034985;28;20265;-85
2022/11/02 00:51:26;;;;;;;4.30;1.17;;;13.50;99.90;;;;;;5035288;28;20178;-85
2022/11/02 00:53:51;;;;;;;6.10;2.00;;;13.40;99.90;;;;;;5017928;28;20309;-85
2022/11/02 00:56:17;;;;;;;5.70;1.63;;;13.40;99.90;;;;;;5036306;28;20236;-85
2022/11/02 00:58:43;;;;;;;5.87;1.70;;;13.30;99.90;;;;;;5018378;28;20633;-85
2022/11/02 01:01:09;;;;;;;9.10;2.50;;;13.30;99.90;;;;;;5034837;28;20186;-85
2022/11/02 01:03:34;;;;;;;7.83;2.23;;;13.30;99.90;;;;;;5018120;28;20528;-84
2022/11/02 01:06:14;;;;;;;10.23;2.10;;;13.20;99.90;;;;;;5018119;28;20270;-85
2022/11/02 01:08:39;;;;;;;6.00;2.20;;;13.20;99.90;;;;;;5035698;28;20178;-85
2022/11/02 01:11:20;;;;;;;4.80;2.77;;;13.10;99.90;;;;;;5034376;28;20873;-85
2022/11/02 01:13:45;;;;;;;6.53;1.73;;;13.10;99.90;;;;;;5035784;28;20178;-85
2022/11/02 01:16:12;;;;;;;11.00;1.80;;;13.10;99.90;;;;;;5033949;28;20456;-85
2022/11/02 01:18:38;;;;;;;12.27;1.80;;;13.10;99.90;;;;;;5035746;28;20177;-85
2022/11/02 01:21:04;;;;;;;6.50;2.07;;;13.10;99.90;;;;;;5035496;28;20959;-85
2022/11/02 01:23:32;;;;;;;7.20;2.37;;;13.10;99.90;;;;;;5034088;28;20520;-84
2022/11/02 01:25:58;;;;;;;9.20;2.30;;;13.10;99.90;;;;;;5033937;28;20424;-85
2022/11/02 01:28:24;;;;;;;6.13;2.07;;;13.10;99.90;;;;;;5035130;28;20417;-85
2022/11/02 01:30:49;;;;;;;4.23;2.00;;;13.00;99.90;;;;;;5034253;28;20405;-85
2022/11/02 01:33:15;;;;;;;8.93;2.00;;;12.90;99.90;;;;;;5017352;28;20200;-85
2022/11/02 01:35:40;;;;;;;11.47;2.30;;;12.80;99.90;;;;;;5017777;28;20269;-85
2022/11/02 01:38:06;;;;;;;6.60;2.30;;;12.70;99.90;;;;;;5033417;28;20186;-85
2022/11/02 01:40:36;;;;;;;12.37;3.33;;;12.60;99.90;;;;;;5017503;28;20183;-85
2022/11/02 01:43:25;;;;;;;6.50;2.07;;;12.60;99.90;;;;;;5033674;28;20209;-85
2022/11/02 01:45:57;;;;;;;10.17;2.13;;;12.60;99.90;;;;;;5033921;28;20503;-85
2022/11/02 01:48:34;;;;;;;8.73;2.30;;;12.50;99.90;;;;;;5034099;28;20483;-85
2022/11/02 01:51:04;;;;;;;7.07;2.20;;;12.50;99.90;;;;;;5034834;28;20452;-85
2022/11/02 01:53:32;;;;;;;4.83;1.50;;;12.50;99.90;;;;;;5033342;28;21021;-85
2022/11/02 01:55:59;;;;;;;6.03;1.63;;;12.40;99.90;;;;;;5034798;28;20474;-86
2022/11/02 01:58:25;;;;;;;6.37;2.40;;;12.40;99.90;;;;;;5034760;28;20413;-85
2022/11/02 02:00:51;;;;;;;3.90;1.80;;;12.40;99.90;;;;;;5033487;28;20462;-85
2022/11/02 02:03:20;;;;;;;4.90;1.70;;;12.40;99.90;;;;;;5033169;28;20468;-85
2022/11/02 02:06:10;;;;;;;6.40;1.60;;;12.40;99.90;;;;;;5034791;28;20447;-85
2022/11/02 02:08:41;;;;;;;8.17;2.37;;;12.30;99.90;;;;;;5026307;28;20421;-85
2022/11/02 02:11:29;;;;;;;9.47;2.43;;;12.40;99.90;;;;;;5034403;28;20436;-85
2022/11/02 02:14:09;;;;;;;18.43;3.57;;;12.40;99.90;;;;;;5034402;28;20443;-88
2022/11/02 02:16:54;;;;;;;4.27;1.70;;;12.40;99.90;;;;;;5034414;28;20408;-87
2022/11/02 02:19:26;;;;;;;8.83;2.43;;;12.40;99.90;;;;;;5033083;28;20472;-85
2022/11/02 02:22:02;;;;;;;11.57;2.63;;;12.40;99.90;;;;;;5034388;28;20463;-85
2022/11/02 02:24:30;;;;;;;9.13;2.90;;;12.40;99.90;;;;;;5034544;28;20452;-86
2022/11/02 02:27:14;;;;;;;14.47;3.37;;;12.30;99.90;;;;;;5032794;28;20440;-85
2022/11/02 02:30:03;;;;;;;7.50;2.63;;;12.30;99.90;;;;;;5034115;28;20951;-85
2022/11/02 02:32:43;;;;;;;7.33;1.43;;;12.30;99.90;;;;;;5033276;28;20974;-85
2022/11/02 02:35:27;;;;;;;4.40;2.10;;;12.20;99.90;;;;;;5034280;28;20463;-85
2022/11/02 02:38:19;;;;;;;6.90;2.50;;;12.20;99.90;;;;;;5033262;28;20483;-85
2022/11/02 02:41:09;;;;;;;7.67;3.00;;;12.20;99.90;;;;;;5034369;28;20413;-85
2022/11/02 02:43:43;;;;;;;6.80;2.40;;;12.20;99.90;;;;;;5034274;28;20495;-85
2022/11/02 02:46:49;;;;;;;9.97;2.67;;;12.10;99.90;;;;;;5033770;28;20832;-85
2022/11/02 02:49:21;;;;;;;4.40;2.40;;;12.20;99.90;;;;;;5004208;28;20496;-85
2022/11/02 02:51:48;;;;;;;14.03;2.40;;;12.10;99.90;;;;;;5034183;28;20397;-85
2022/11/02 02:54:34;;;;;;;7.23;2.17;;;12.20;99.90;;;;;;5016004;28;20916;-85
2022/11/02 02:57:05;;;;;;;6.13;2.63;;;12.10;99.90;;;;;;5032542;28;20969;-85
2022/11/02 02:59:38;;;;;;;6.60;2.53;;;12.10;99.90;;;;;;5033972;28;20393;-84
2022/11/02 03:02:06;;;;;;;11.33;2.53;;;12.10;99.90;;;;;;5033481;28;20498;-85
2022/11/02 03:04:31;;;;;;;8.50;2.60;;;12.00;99.90;;;;;;5033882;28;20496;-84
2022/11/02 03:06:59;;;;;;;4.73;1.70;;;12.00;99.90;;;;;;5032465;28;20448;-87
2022/11/02 03:09:46;;;;;;;9.40;3.10;;;12.00;99.90;;;;;;5032644;28;20273;-84
2022/11/02 03:12:23;;;;;;;9.13;2.97;;;12.10;99.90;;;;;;5037541;28;20419;-85
2022/11/02 03:15:12;;;;;;;19.60;9.83;;;12.10;99.90;;;;;;5037831;28;20490;-84
2022/11/02 03:17:55;;;;;;;15.00;3.77;;;12.10;99.90;;;;;;5036674;28;20913;-85
2022/11/02 03:20:29;;;;;;;6.27;1.97;;;12.10;99.90;;;;;;5035955;28;20424;-85
2022/11/02 03:23:14;;;;;;;9.70;2.73;;;12.10;99.90;;;;;;5037659;28;20456;-85
2022/11/02 03:25:52;;;;;;;6.13;1.80;;;12.10;99.90;;;;;;5037813;28;20450;-84
2022/11/02 03:28:26;;;;;;;5.73;2.07;;;12.10;99.90;;;;;;5037296;28;20472;-86
2022/11/02 03:30:59;;;;;;;9.07;3.97;;;12.10;99.90;;;;;;5037445;28;20773;-85
2022/11/02 03:33:28;;;;;;;12.00;6.00;;;12.20;99.90;;;;;;5037397;28;20397;-85
2022/11/02 03:36:06;;;;;;;11.50;4.20;;;12.20;99.90;;;;;;5036208;28;20509;-85
2022/11/02 03:38:44;;;;;;;9.77;4.40;;;12.30;99.90;;;;;;5036152;28;20416;-85
2022/11/02 03:41:11;;;;;;;12.00;4.70;;;12.30;99.90;;;;;;5035766;28;20837;-84
2022/11/02 03:43:39;;;;;;;40.73;16.87;;;12.30;99.90;;;;;;5019576;28;20467;-85
2022/11/02 03:46:08;;;;;;;15.20;5.20;;;12.30;99.90;;;;;;5036982;28;20405;-85
2022/11/02 03:48:41;;;;;;;8.00;4.30;;;12.40;99.90;;;;;;5036966;28;20448;-86
2022/11/02 03:51:18;;;;;;;7.27;2.90;;;12.40;99.90;;;;;;5036957;28;20403;-85
2022/11/02 03:53:50;;;;;;;2.97;1.47;;;12.50;99.90;;;;;;5036707;28;20420;-84
2022/11/02 03:56:30;;;;;;;7.80;2.30;;;12.50;99.90;;;;;;5036696;28;20412;-85
2022/11/02 03:58:56;;;;;;;8.00;1.50;;;12.70;99.90;;;;;;5035638;28;20420;-85
2022/11/02 04:01:22;;;;;;;8.40;1.93;;;12.80;99.90;;;;;;5035352;28;20421;-85
2022/11/02 04:03:48;;;;;;;6.57;1.63;;;12.90;99.90;;;;;;5035683;28;20185;-84
2022/11/02 04:06:14;;;;;;;8.43;1.70;;;13.00;99.90;;;;;;5036726;28;20424;-84
2022/11/02 04:08:42;;;;;;;9.93;1.80;;;13.10;99.90;;;;;;5035612;28;20173;-84
2022/11/02 04:16:37;;;;;;;10.70;1.90;;;13.00;99.90;;;;;;5036645;28;20439;-83
2022/11/02 04:27:35;;;;;;;6.63;1.43;;;12.90;99.90;;;;;;5014795;28;20389;-83
2022/11/02 04:30:00;;;;;;;6.93;1.60;;;12.90;99.90;;;;;;5027123;28;20866;-83
2022/11/02 04:35:10;;;;;;;6.10;1.77;;;12.80;99.90;;;;;;5035756;28;20176;-84
2022/11/02 04:40:27;;;;;;;4.73;1.47;;;12.80;99.90;;;;;;5037616;28;20224;-84
2022/11/02 04:42:52;;;;;;;6.80;1.60;;;12.80;99.90;;;;;;5036284;28;20464;-83
2022/11/02 04:45:18;;;;;;;5.97;1.43;;;12.70;99.90;;;;;;5035959;28;20420;-84
2022/11/02 04:47:44;;;;;;;6.27;1.57;;;12.70;99.90;;;;;;5036190;28;20412;-84
2022/11/02 04:50:10;;;;;;;7.37;1.70;;;12.70;99.90;;;;;;5034592;28;20257;-83
2022/11/02 04:52:35;;;;;;;8.30;1.50;;;12.60;99.90;;;;;;5034588;28;20190;-84
2022/11/02 04:55:01;;;;;;;6.70;1.23;;;12.60;99.90;;;;;;5034537;28;20460;-84
2022/11/02 04:57:27;;;;;;;6.67;2.00;;;12.70;99.90;;;;;;5034885;28;20174;-83
2022/11/02 04:59:52;;;;;;;7.07;2.17;;;12.60;99.90;;;;;;5035964;28;20184;-83
2022/11/02 05:02:18;;;;;;;9.20;1.77;;;12.50;99.90;;;;;;5018046;28;20217;-83
2022/11/02 05:04:43;;;;;;;8.23;2.07;;;12.50;99.90;;;;;;5034928;28;20178;-83
2022/11/02 05:07:11;;;;;;;13.23;2.07;;;12.60;99.90;;;;;;5018024;28;20202;-83
2022/11/02 05:09:36;;;;;;;5.13;2.17;;;12.60;99.90;;;;;;5034435;28;20428;-84
2022/11/02 05:12:04;;;;;;;13.00;1.97;;;12.60;99.90;;;;;;5018156;28;20479;-83
2022/11/02 05:14:30;;;;;;;7.90;1.50;;;12.50;99.90;;;;;;5035071;28;20556;-83
2022/11/02 05:16:56;;;;;;;6.00;1.80;;;12.50;99.90;;;;;;5035348;28;20503;-83
2022/11/02 05:19:23;;;;;;;4.20;1.83;;;12.50;99.90;;;;;;5035204;28;20820;-84
2022/11/02 05:21:49;;;;;;;10.90;2.10;;;12.50;99.90;;;;;;5035339;28;20460;-84
2022/11/02 05:24:14;;;;;;;9.60;2.60;;;12.40;99.90;;;;;;5033900;28;20841;-84
2022/11/02 05:26:40;;;;;;;9.33;2.67;;;12.40;99.90;;;;;;5017376;28;20429;-84
2022/11/02 05:29:06;;;;;;;6.43;1.97;;;12.40;99.90;;;;;;5034507;28;20205;-86
2022/11/02 05:31:32;;;;;;;7.90;1.60;;;12.40;99.90;;;;;;5034765;28;20193;-83
2022/11/02 05:33:58;;;;;;;5.63;1.47;;;12.30;99.90;;;;;;5035057;28;20405;-83
2022/11/02 05:36:23;;;;;;;5.47;2.00;;;12.30;99.90;;;;;;5034875;28;20182;-83
2022/11/02 05:38:53;;;;;;;5.80;1.63;;;12.30;99.90;;;;;;5018050;28;20197;-83
2022/11/02 05:41:19;;;;;;;6.53;1.80;;;12.30;99.90;;;;;;5033749;28;20175;-83
2022/11/02 05:43:44;;;;;;;7.50;2.03;;;12.30;99.90;;;;;;5033859;28;20503;-83
2022/11/02 05:46:13;;;;;;;7.70;2.17;;;12.30;99.90;;;;;;5033733;28;20529;-83
2022/11/02 05:48:39;;;;;;;5.70;1.67;;;12.20;99.90;;;;;;5033938;28;20182;-82
2022/11/02 05:51:05;;;;;;;7.90;1.53;;;12.30;99.90;;;;;;5035110;28;20408;-83
2022/11/02 05:53:32;;;;;;;7.70;1.93;;;12.30;99.90;;;;;;5033581;28;20424;-82
2022/11/02 05:56:03;;;;;;;11.17;2.30;;;12.30;99.90;;;;;;5034902;28;20468;-83
2022/11/02 05:58:29;;;;;;;7.00;1.83;;;12.40;99.90;;;;;;5034337;28;20470;-82
2022/11/02 06:00:58;;;;;;;8.47;2.00;;;12.30;99.90;;;;;;5034810;28;20812;-82
2022/11/02 06:03:23;;;;;;;9.90;3.20;;;12.40;99.90;;;;;;5034145;28;20735;-83
2022/11/02 06:05:55;;;;;;;6.57;1.93;;;12.40;99.90;;;;;;5035309;28;20421;-82
2022/11/02 06:08:21;;;;;;;9.37;2.10;;;12.40;99.90;;;;;;5034702;28;20189;-83
2022/11/02 06:10:47;;;;;;;10.13;2.10;;;12.50;99.90;;;;;;5017233;28;20816;-83
2022/11/02 06:13:13;;;;;;;12.27;2.30;;;12.50;99.90;;;;;;5034588;28;20614;-84
2022/11/02 06:15:39;;;;;;;8.47;1.80;;;12.40;99.90;;;;;;5032956;28;20436;-83
2022/11/02 06:18:04;;;;;;;7.93;1.43;;;12.40;99.90;;;;;;5017076;28;20443;-83
2022/11/02 06:20:30;;;;;;;5.93;1.33;;;12.40;99.90;;;;;;5033076;28;20182;-80
2022/11/02 06:22:56;;;;;;;9.00;2.30;;;12.40;99.90;;;;;;5033199;28;20220;-81
2022/11/02 06:25:21;;;;;;;9.80;1.97;;;12.40;99.90;;;;;;5034311;28;20273;-80
2022/11/02 06:27:55;;;;;;;6.70;1.80;;;12.40;99.90;;;;;;5000456;28;20193;-81
2022/11/02 06:30:25;;;;;;;10.43;2.50;;;12.40;99.90;;;;;;5033341;28;20173;-80
2022/11/02 06:32:52;;;;;;;10.93;1.70;;;12.40;99.90;;;;;;5016946;28;20868;-80
2022/11/02 06:35:20;;;;;;;7.93;1.53;;;12.40;99.90;;;;;;5033035;28;20495;-81
2022/11/02 06:37:46;;;;;;;9.97;2.37;;;12.40;99.90;;;;;;5034253;28;20448;-80
2022/11/02 06:40:13;;;;;;;8.63;2.83;;;12.40;99.90;;;;;;5016331;28;20417;-81
2022/11/02 06:42:39;;;;;;;6.50;1.93;;;12.40;99.90;;;;;;5032918;28;20995;-80
2022/11/02 06:45:06;;;;;;;8.97;1.73;;;12.40;99.90;;;;;;5034738;28;20562;-80
2022/11/02 06:47:33;;;;;;;7.50;1.80;;;12.30;99.90;;;;;;5033959;28;20778;-80
2022/11/02 06:49:59;;;;;;;10.07;1.83;;;12.30;99.90;;;;;;5033914;28;20417;-80
2022/11/02 06:52:26;;;;;;;11.93;1.90;;;12.30;99.90;;;;;;5016502;28;20425;-80
2022/11/02 06:54:52;;;;;;;9.20;1.87;;;12.30;99.90;;;;;;5032256;28;20234;-80
2022/11/02 06:57:17;;;;;;;8.53;1.77;;;12.30;99.90;;;;;;5016397;28;20423;-80
2022/11/02 06:59:43;;;;;;;4.67;1.80;;;12.30;99.90;;;;;;5034304;28;20421;-80
2022/11/02 07:02:09;;;;;;;8.37;2.30;;;12.10;99.90;;;;;;5033872;28;20238;-80
2022/11/02 07:04:34;;;;;;;5.73;2.30;;;12.20;99.90;;;;;;5034203;28;20182;-80
2022/11/02 07:07:00;;;;;;;8.87;1.60;;;12.20;99.90;;;;;;5032712;28;20198;-80
2022/11/02 07:09:25;;;;;;;6.23;1.30;;;12.20;99.90;;;;;;5033796;28;20237;-80
2022/11/02 07:11:51;;;;;;;7.53;2.60;;;12.20;99.90;;;;;;5016650;28;20194;-78
2022/11/02 07:14:17;;;;;;;14.73;2.73;;;12.20;99.90;;;;;;5032245;28;20186;-80
2022/11/02 07:16:42;;;;;;;11.03;2.00;;;12.20;99.90;;;;;;5016464;28;20281;-80
2022/11/02 07:19:08;;;;;;;6.03;2.03;;;12.20;99.90;;;;;;5032731;28;20412;-80
2022/11/02 07:21:34;;;;;;;7.60;2.00;;;12.20;99.90;;;;;;5032413;28;20209;-80
2022/11/02 07:24:00;;;;;;;17.17;3.27;;;12.20;99.90;;;;;;5032830;28;20186;-80
2022/11/02 07:26:26;;;;;;;6.90;1.83;;;12.20;99.90;;;;;;5032084;28;20412;-80
2022/11/02 07:28:52;;;;;;;9.13;2.23;;;12.20;99.90;;;;;;5033533;28;20231;-80
2022/11/02 07:31:18;;;;;;;7.73;2.17;;;12.30;99.90;;;;;;5032498;28;20503;-80
2022/11/02 07:33:43;;;;;;;10.43;1.63;;;12.30;99.90;;;;;;5034030;28;20413;-80
2022/11/02 07:36:09;;;;;;;7.93;2.10;;;12.30;99.90;;;;;;5033725;28;20182;-79
2022/11/02 07:38:35;;;;;;;6.00;1.60;;;12.30;99.90;;;;;;5033495;28;20193;-80
2022/11/02 07:41:01;;;;;;;9.50;2.03;;;12.30;99.90;;;;;;5033596;28;20216;-80
2022/11/02 07:43:27;;;;;;;7.90;2.30;;;12.30;99.90;;;;;;5033121;28;20210;-80
2022/11/02 07:45:53;;;;;;;7.40;1.63;;;12.30;99.90;;;;;;5032358;28;20811;-81
2022/11/02 07:48:19;;;;;;;8.57;1.83;;;12.40;99.90;;;;;;5033408;28;20424;-78
2022/11/02 07:50:44;;;;;;;9.33;2.83;;;12.40;99.90;;;;;;5015934;28;20268;-81
2022/11/02 07:53:10;;;;;;;6.27;2.27;;;12.40;99.90;;;;;;5032271;28;20225;-80
2022/11/02 07:55:36;;;;;;;6.73;2.13;;;12.40;99.90;;;;;;5033001;28;20226;-80
2022/11/02 07:58:03;;;;;;;9.50;2.27;;;12.40;99.90;;;;;;5037018;28;20205;-81
2022/11/02 08:00:32;;;;;;;8.87;2.17;;;12.50;99.90;;;;;;5037483;28;20178;-80
2022/11/02 08:03:00;;;;;;;7.83;2.60;;;12.50;99.90;;;;;;5036988;28;20467;-80
2022/11/02 08:05:27;;;;;;;7.50;1.90;;;12.50;99.90;;;;;;5035813;28;20412;-80
2022/11/02 08:07:59;;;;;;;6.40;1.70;;;12.50;99.90;;;;;;5036841;28;20757;-80
2022/11/02 08:10:26;;;;;;;7.87;2.70;;;12.60;99.90;;;;;;5015472;28;20529;-80
2022/11/02 08:12:53;;;;;;;9.37;2.40;;;12.70;99.90;;;;;;5023683;28;20428;-80
2022/11/02 08:15:18;;;;;;;4.87;1.90;;;12.70;99.90;;;;;;5003046;28;21023;-81
2022/11/02 08:17:44;;;;;;;7.00;2.00;;;12.80;99.90;;;;;;5019582;28;20508;-81
2022/11/02 08:20:09;;;;;;;10.53;2.10;;;12.90;99.90;;;;;;5019043;28;20190;-79
2022/11/02 08:22:39;;;;;;;12.73;2.37;;;12.90;99.90;;;;;;5035091;28;20213;-79
2022/11/02 08:25:06;;;;;;;13.37;2.53;;;12.80;99.90;;;;;;5031758;28;20186;-79
2022/11/02 08:27:32;;;;;;;12.10;2.67;;;12.90;99.90;;;;;;5035967;28;20413;-79
2022/11/02 08:29:57;;;;;;;11.23;1.70;;;12.90;99.90;;;;;;5036447;28;20927;-80
2022/11/02 08:32:23;;;;;;;7.43;2.03;;;12.90;99.90;;;;;;5034914;28;20190;-79
2022/11/02 08:34:48;;;;;;;15.60;2.87;;;12.90;99.90;;;;;;5035497;28;20240;-78
2022/11/02 08:37:14;;;;;;;12.17;2.67;;;12.90;99.90;;;;;;5036564;28;20186;-79
2022/11/02 08:39:40;;;;;;;9.80;1.53;;;13.00;99.90;;;;;;5035601;28;20186;-79
2022/11/02 08:42:05;;;;;;;12.37;1.97;;;13.00;99.90;;;;;;5002859;28;20221;-79
2022/11/02 08:44:31;;;;;;;7.10;2.27;;;12.90;99.90;;;;;;5035497;28;20471;-79
2022/11/02 08:46:57;;;;;;;9.00;1.70;;;12.90;99.90;;;;;;5036173;28;20183;-80
2022/11/02 08:49:22;;;;;;;9.20;2.50;;;12.90;99.90;;;;;;5018363;28;20545;-79
2022/11/02 08:51:48;;;;;;;14.50;2.40;;;12.90;99.90;;;;;;5018742;28;20186;-79
2022/11/02 08:54:14;;;;;;;11.90;2.03;;;12.90;99.90;;;;;;5034410;28;20321;-79
2022/11/02 08:56:39;;;;;;;13.23;2.10;;;13.00;99.90;;;;;;5035508;28;20538;-81
2022/11/02 08:59:05;;;;;;;14.13;2.40;;;13.00;99.90;;;;;;5017407;28;20413;-80
2022/11/02 09:01:31;;;;;;;10.50;1.90;;;13.00;99.90;;;;;;5034238;28;20589;-79
2022/11/02 09:03:57;;;;;;;5.53;1.87;;;13.00;99.90;;;;;;5035691;28;20229;-80
2022/11/02 09:06:22;;;;;;;13.23;2.30;;;13.00;99.90;;;;;;5036112;28;20773;-80
2022/11/02 09:08:48;;;;;;;11.47;2.10;;;13.00;99.90;;;;;;5016941;28;20178;-80
2022/11/02 09:11:14;;;;;;;5.03;2.00;;;13.10;99.90;;;;;;5018327;28;20178;-79
2022/11/02 09:13:39;;;;;;;15.70;2.27;;;13.20;99.90;;;;;;5018036;28;20224;-79
2022/11/02 09:16:05;;;;;;;11.37;2.50;;;13.30;99.90;;;;;;5035698;28;20178;-79
2022/11/02 09:18:31;;;;;;;9.47;2.10;;;13.30;99.90;;;;;;5017676;28;20185;-79
2022/11/02 09:21:00;;;;;;;11.27;2.33;;;13.40;99.90;;;;;;5035702;28;20932;-79
2022/11/02 09:23:26;;;;;;;6.70;1.87;;;13.50;99.90;;;;;;5035241;28;20487;-79
2022/11/02 09:25:52;;;;;;;5.83;1.60;;;13.70;99.90;;;;;;5035497;28;20416;-80
2022/11/02 09:28:18;;;;;;;11.17;1.90;;;13.80;99.90;;;;;;5035832;28;20652;-79
2022/11/02 09:30:44;;;;;;;5.47;1.80;;;13.80;99.90;;;;;;5035738;28;20476;-79
2022/11/02 09:33:10;;;;;;;11.50;1.80;;;14.00;99.90;;;;;;5034663;28;20830;-79
2022/11/02 09:35:38;;;;;;;17.53;2.50;;;14.10;99.90;;;;;;5034331;28;20809;-81
2022/11/02 09:38:04;;;;;;;14.80;2.07;;;14.10;99.90;;;;;;5035248;28;20431;-79
2022/11/02 09:40:37;;;;;;;6.50;2.13;;;14.20;99.90;;;;;;5034591;28;20413;-80
2022/11/02 09:43:20;;;;;;;11.13;2.57;;;14.30;99.90;;;;;;5035649;28;20460;-79
2022/11/02 09:46:18;;;;;;;9.03;2.10;;;14.60;99.90;;;;;;5035060;28;20423;-79
2022/11/02 09:48:49;;;;;;;6.97;2.03;;;14.50;99.90;;;;;;4990260;28;20436;-80
2022/11/02 09:51:24;;;;;;;6.60;1.90;;;14.50;99.90;;;;;;5034901;28;20956;-79
2022/11/02 09:54:10;;;;;;;14.97;2.30;;;14.60;99.90;;;;;;5033205;28;20487;-78
2022/11/02 09:56:36;;;;;;;5.20;2.37;;;14.70;99.90;;;;;;5035243;28;20406;-79
2022/11/02 09:59:17;;;;;;;4.80;1.67;;;14.80;99.90;;;;;;5017320;28;20429;-79
2022/11/02 10:02:09;;;;;;;6.80;1.90;;;14.90;99.90;;;;;;5033473;28;20947;-79
2022/11/02 10:04:50;;;;;;;8.53;2.27;;;15.10;99.90;;;;;;5033562;28;20482;-79
2022/11/02 10:07:50;;;;;;;4.60;1.50;;;15.30;99.90;;;;;;5033537;28;20428;-79
2022/11/02 10:10:22;;;;;;;14.77;2.80;;;15.20;99.90;;;;;;5033386;28;20426;-79
2022/11/02 10:12:57;;;;;;;8.97;2.73;;;15.60;99.90;;;;;;5034864;28;20478;-79
2022/11/02 10:15:34;;;;;;;6.30;1.57;;;15.70;99.90;;;;;;5033456;28;20399;-82
2022/11/02 10:18:01;;;;;;;8.20;1.80;;;15.90;99.90;;;;;;5034886;28;20376;-79
2022/11/02 10:20:33;;;;;;;5.90;2.20;;;15.90;99.90;;;;;;5032937;28;20384;-79
2022/11/02 10:23:06;;;;;;;10.27;2.20;;;15.90;99.90;;;;;;5033437;28;20819;-79
2022/11/02 10:25:33;;;;;;;11.67;2.30;;;16.10;99.90;;;;;;5034388;28;20459;-79
2022/11/02 10:28:17;;;;;;;8.13;2.57;;;16.00;99.90;;;;;;5034368;28;20421;-79
2022/11/02 10:30:44;;;;;;;8.80;2.30;;;16.00;99.90;;;;;;5034451;28;20436;-79
2022/11/02 10:33:25;;;;;;;9.43;2.10;;;16.40;99.90;;;;;;5033319;28;20424;-79
2022/11/02 10:36:06;;;;;;;6.00;1.53;;;16.60;99.90;;;;;;5032799;28;20458;-80
2022/11/02 10:38:52;;;;;;;6.87;1.73;;;17.10;99.90;;;;;;5033935;28;20375;-82
2022/11/02 10:41:36;;;;;;;5.27;1.73;;;17.10;99.90;;;;;;5032871;28;20417;-80
2022/11/02 10:44:11;;;;;;;5.33;1.43;;;17.40;99.90;;;;;;5029468;28;20460;-80
2022/11/02 10:46:48;;;;;;;9.07;2.63;;;17.50;99.90;;;;;;5030284;28;20379;-80
2022/11/02 10:49:34;;;;;;;4.13;1.63;;;18.00;99.90;;;;;;5029846;28;20420;-80
2022/11/02 10:52:00;;;;;;;12.33;2.03;;;18.70;99.90;;;;;;5027067;28;20800;-80
2022/11/02 10:54:25;;;;;;;10.47;2.10;;;19.30;99.90;;;;;;5026316;28;20447;-80
2022/11/02 10:56:51;;;;;;;3.73;1.30;;;19.00;99.90;;;;;;5028420;28;20178;-79
2022/11/02 10:59:22;;;;;;;10.60;2.30;;;18.70;99.90;;;;;;5009320;28;20197;-80
2022/11/02 11:01:57;;;;;;;5.60;1.77;;;18.70;99.90;;;;;;5031487;28;20241;-79
2022/11/02 11:04:28;;;;;;;11.87;2.00;;;18.60;99.90;;;;;;5032747;28;20424;-78
2022/11/02 11:06:55;;;;;;;7.90;2.23;;;19.00;99.90;;;;;;5033947;28;20423;-80
2022/11/02 11:09:21;;;;;;;8.40;1.70;;;18.60;99.90;;;;;;5034230;28;20431;-79
2022/11/02 11:12:00;;;;;;;5.87;1.90;;;18.90;99.90;;;;;;5033531;28;20499;-80
2022/11/02 11:14:28;;;;;;;8.63;2.37;;;19.10;99.90;;;;;;5033950;28;20186;-79
2022/11/02 11:16:57;;;;;;;4.17;1.77;;;19.70;99.90;;;;;;5032970;28;20428;-79
2022/11/02 11:19:40;;;;;;;7.90;1.80;;;20.10;99.90;;;;;;5033754;28;20413;-80
2022/11/02 11:22:28;;;;;;;7.60;2.03;;;20.10;99.90;;;;;;5033779;28;20461;-79
2022/11/02 11:25:21;;;;;;;4.10;1.67;;;19.20;99.90;;;;;;5034621;28;20956;-77
2022/11/02 11:27:55;;;;;;;8.43;2.13;;;18.80;99.90;;;;;;5033558;28;20512;-80
2022/11/02 11:30:34;;;;;;;8.90;1.90;;;18.60;99.90;;;;;;5032491;28;20409;-80
2022/11/02 11:33:01;;;;;;;7.23;1.60;;;18.40;99.90;;;;;;5036589;28;20895;-80
2022/11/02 11:35:39;;;;;;;7.00;1.30;;;18.00;99.90;;;;;;5036263;28;20415;-80
2022/11/02 11:38:13;;;;;;;7.43;1.70;;;17.60;99.90;;;;;;5035937;28;20391;-79
2022/11/02 11:40:42;;;;;;;4.13;1.50;;;17.00;99.90;;;;;;5037132;28;20367;-80
2022/11/02 11:43:13;;;;;;;7.23;1.80;;;16.80;99.90;;;;;;5035756;28;20873;-79
2022/11/02 11:45:39;;;;;;;5.33;1.93;;;16.70;99.90;;;;;;5036900;28;20429;-79
2022/11/02 11:48:26;;;;;;;6.97;2.33;;;16.90;99.90;;;;;;5011064;28;20431;-79
2022/11/02 11:50:51;;;;;;;19.80;2.20;;;17.10;99.90;;;;;;5033368;28;20610;-78
2022/11/02 11:53:22;;;;;;;7.13;1.80;;;17.40;99.90;;;;;;5036605;28;20458;-80
2022/11/02 11:55:53;;;;;;;8.03;1.60;;;17.90;99.90;;;;;;5035947;28;20689;-80
2022/11/02 11:58:24;;;;;;;6.93;2.20;;;17.90;99.90;;;;;;5034507;28;20954;-80
2022/11/02 12:01:10;;;;;;;5.10;1.80;;;18.30;99.90;;;;;;5034721;28;20440;-82
2022/11/02 12:04:02;;;;;;;6.63;1.77;;;18.40;99.90;;;;;;5027233;28;20431;-81
2022/11/02 12:06:37;;;;;;;5.33;1.63;;;18.10;99.90;;;;;;5015983;28;20401;-80
2022/11/02 12:09:29;;;;;;;4.50;1.83;;;18.10;99.90;;;;;;5017676;28;20375;-80
2022/11/02 12:12:01;;;;;;;7.60;2.13;;;18.20;99.90;;;;;;5016954;28;20385;-80
2022/11/02 12:14:50;;;;;;;3.80;1.93;;;18.10;99.90;;;;;;5015174;28;20475;-80
2022/11/02 12:17:25;;;;;;;8.47;1.80;;;17.90;99.90;;;;;;5015090;28;20834;-79
2022/11/02 12:20:10;;;;;;;7.23;1.93;;;17.90;99.90;;;;;;5022408;28;20406;-80
2022/11/02 12:22:57;;;;;;;4.80;1.63;;;18.10;99.90;;;;;;5048324;28;20444;-79
2022/11/02 12:25:34;;;;;;;9.80;2.50;;;18.00;99.90;;;;;;5035204;28;20467;-79
2022/11/02 12:28:30;;;;;;;7.90;2.00;;;18.00;99.90;;;;;;5034892;28;20375;-80
2022/11/02 12:31:11;;;;;;;7.40;1.90;;;18.10;99.90;;;;;;5049862;28;20420;-79
2022/11/02 12:33:47;;;;;;;5.20;2.50;;;17.90;99.90;;;;;;5033240;28;20395;-80
2022/11/02 12:36:28;;;;;;;6.00;1.63;;;17.80;99.90;;;;;;5034612;28;20403;-79
2022/11/02 12:38:56;;;;;;;5.10;2.30;;;17.70;99.90;;;;;;5035683;28;20423;-81
2022/11/02 12:41:51;;;;;;;8.00;2.30;;;17.60;99.90;;;;;;5028527;28;20403;-79
2022/11/02 12:44:46;;;;;;;6.60;1.60;;;17.60;99.90;;;;;;5003248;28;20768;-79
2022/11/02 12:47:17;;;;;;;9.00;2.20;;;17.50;99.90;;;;;;5014070;28;20441;-79
2022/11/02 12:50:08;;;;;;;8.57;2.03;;;17.40;99.90;;;;;;5025497;28;20438;-80
2022/11/02 12:52:52;;;;;;;6.10;1.50;;;17.40;99.90;;;;;;5014875;28;20433;-80
2022/11/02 12:55:22;;;;;;;7.57;1.53;;;17.60;99.90;;;;;;5014727;28;20482;-79
2022/11/02 12:57:48;;;;;;;5.50;1.40;;;17.70;99.90;;;;;;5026086;28;20376;-79
2022/11/02 13:00:20;;;;;;;6.17;1.63;;;18.00;99.90;;;;;;5001840;28;20450;-80
2022/11/02 13:03:01;;;;;;;4.57;1.97;;;17.70;99.90;;;;;;5035769;28;20202;-80
2022/11/02 13:05:31;;;;;;;5.37;1.80;;;17.50;99.90;;;;;;5035471;28;20433;-79
2022/11/02 13:08:17;;;;;;;7.23;2.03;;;17.40;99.90;;;;;;5035220;28;20371;-79
2022/11/02 13:10:50;;;;;;;3.80;1.40;;;17.30;99.90;;;;;;5034918;28;20391;-80
2022/11/02 13:13:22;;;;;;;4.77;1.47;;;17.40;99.90;;;;;;5034783;28;20405;-80
2022/11/02 13:15:49;;;;;;;9.30;2.30;;;17.30;99.90;;;;;;5034940;28;20504;-79
2022/11/02 13:18:23;;;;;;;9.00;1.87;;;17.40;99.90;;;;;;5035200;28;20391;-79
2022/11/02 13:20:55;;;;;;;9.77;2.43;;;17.50;99.90;;;;;;5035518;28;20437;-80
2022/11/02 13:23:33;;;;;;;7.20;1.60;;;17.60;99.90;;;;;;5034385;28;20990;-79